VOZ879 YMML-YSSY
Flight info
| Callsign | VOZ879 |
|---|---|
| Flight time | 1h 12m |
| Altitude | 37000 |
| Route | DOSEL2/34 DOSEL Y59 RIVET |
| Aircraft | B738/M-SDE2E3FGHIRWXY/LB1 |
Departure
| Time | 2026-05-04 10:44 |
|---|---|
| Airport | Melbourne Airport (YMML) |
Arrival
| Time | 2026-05-04 11:56 |
|---|---|
| Airport | Sydney Kingsford Smith International Airport (YSSY) |
| Time | Latitude | Longitude | Altitude | Speed | Heading |
|---|---|---|---|---|---|
| 2026-05-04 10:08 | -37.67126 | 144.84636 | 389 ft | 0 kts | 352° |
| 2026-05-04 10:31 | -37.67149 | 144.84640 | 388 ft | 4 kts | 352° |
| 2026-05-04 10:32 | -37.67193 | 144.84679 | 386 ft | 1 kts | 262° |
| 2026-05-04 10:33 | -37.67193 | 144.84678 | 386 ft | 0 kts | 262° |
| 2026-05-04 10:35 | -37.67195 | 144.84655 | 386 ft | 4 kts | 262° |
| 2026-05-04 10:36 | -37.67199 | 144.84614 | 385 ft | 5 kts | 263° |
| 2026-05-04 10:36 | -37.67204 | 144.84572 | 385 ft | 5 kts | 262° |
| 2026-05-04 10:36 | -37.67210 | 144.84515 | 384 ft | 8 kts | 263° |
| 2026-05-04 10:36 | -37.67197 | 144.84442 | 385 ft | 10 kts | 278° |
| 2026-05-04 10:37 | -37.67204 | 144.84333 | 382 ft | 14 kts | 263° |
| 2026-05-04 10:37 | -37.67215 | 144.84206 | 382 ft | 14 kts | 264° |
| 2026-05-04 10:37 | -37.67233 | 144.84096 | 379 ft | 8 kts | 230° |
| 2026-05-04 10:37 | -37.67305 | 144.84080 | 373 ft | 14 kts | 170° |
| 2026-05-04 10:39 | -37.67870 | 144.84132 | 357 ft | 12 kts | 250° |
| 2026-05-04 10:39 | -37.67872 | 144.84121 | 363 ft | 0 kts | 258° |
| 2026-05-04 10:41 | -37.67873 | 144.84114 | 362 ft | 3 kts | 259° |
| 2026-05-04 10:41 | -37.67880 | 144.84068 | 358 ft | 7 kts | 260° |
| 2026-05-04 10:41 | -37.67888 | 144.84004 | 357 ft | 7 kts | 260° |
| 2026-05-04 10:42 | -37.67861 | 144.83963 | 362 ft | 7 kts | 354° |
| 2026-05-04 10:42 | -37.67805 | 144.83954 | 364 ft | 15 kts | 353° |
| 2026-05-04 10:42 | -37.67469 | 144.83892 | 370 ft | 82 kts | 352° |
| 2026-05-04 10:42 | -37.66711 | 144.83752 | 398 ft | 136 kts | 351° |
| 2026-05-04 10:43 | -37.65685 | 144.83577 | 737 ft | 156 kts | 353° |
| 2026-05-04 10:44 | -37.56179 | 144.83970 | 3957 ft | 263 kts | 19° |
| 2026-05-04 10:45 | -37.54516 | 144.85008 | 4614 ft | 267 kts | 20° |
| 2026-05-04 10:45 | -37.52857 | 144.86050 | 4972 ft | 270 kts | 20° |
| 2026-05-04 10:45 | -37.51149 | 144.87111 | 4985 ft | 274 kts | 20° |
| 2026-05-04 10:45 | -37.49443 | 144.88158 | 4990 ft | 272 kts | 20° |
| 2026-05-04 10:46 | -37.47744 | 144.89192 | 4987 ft | 270 kts | 19° |
| 2026-05-04 10:46 | -37.46057 | 144.90214 | 5026 ft | 270 kts | 19° |
| 2026-05-04 10:46 | -37.44345 | 144.91265 | 5378 ft | 277 kts | 24° |
| 2026-05-04 10:46 | -37.42892 | 144.92906 | 6208 ft | 288 kts | 49° |
| 2026-05-04 10:47 | -37.41725 | 144.94964 | 6996 ft | 290 kts | 50° |
| 2026-05-04 10:47 | -37.40556 | 144.97058 | 7717 ft | 295 kts | 51° |
| 2026-05-04 10:47 | -37.39373 | 144.99185 | 8464 ft | 299 kts | 51° |
| 2026-05-04 10:47 | -37.38178 | 145.01330 | 9302 ft | 300 kts | 51° |
| 2026-05-04 10:49 | -37.28631 | 145.18232 | 13723 ft | 365 kts | 51° |
| 2026-05-04 10:49 | -37.27150 | 145.20843 | 14452 ft | 369 kts | 51° |
| 2026-05-04 10:50 | -37.25654 | 145.23477 | 15234 ft | 372 kts | 51° |
| 2026-05-04 10:51 | -37.14773 | 145.42560 | 20237 ft | 395 kts | 50° |
| 2026-05-04 10:52 | -37.13162 | 145.45368 | 20860 ft | 399 kts | 50° |
| 2026-05-04 10:52 | -37.11533 | 145.48204 | 21482 ft | 402 kts | 50° |
| 2026-05-04 10:52 | -37.09891 | 145.51061 | 22108 ft | 406 kts | 50° |
| 2026-05-04 10:54 | -36.98000 | 145.71697 | 25594 ft | 430 kts | 48° |
| 2026-05-04 10:54 | -36.96240 | 145.74741 | 26054 ft | 433 kts | 47° |
| 2026-05-04 10:56 | -36.83609 | 145.96507 | 28924 ft | 454 kts | 44° |
| 2026-05-04 10:56 | -36.81751 | 145.99703 | 29299 ft | 456 kts | 44° |
| 2026-05-04 10:56 | -36.79883 | 146.02920 | 29664 ft | 459 kts | 44° |
| 2026-05-04 10:57 | -36.77996 | 146.06149 | 30019 ft | 461 kts | 43° |
| 2026-05-04 10:57 | -36.76109 | 146.09382 | 30431 ft | 461 kts | 44° |
| 2026-05-04 10:57 | -36.74214 | 146.12623 | 30636 ft | 465 kts | 44° |
| 2026-05-04 10:57 | -36.72295 | 146.15897 | 30841 ft | 470 kts | 44° |
| 2026-05-04 10:58 | -36.70362 | 146.19197 | 31116 ft | 472 kts | 44° |
| 2026-05-04 10:58 | -36.68424 | 146.22502 | 31395 ft | 474 kts | 44° |
| 2026-05-04 10:58 | -36.66476 | 146.25822 | 31702 ft | 475 kts | 44° |
| 2026-05-04 10:58 | -36.64525 | 146.29148 | 32054 ft | 475 kts | 44° |
| 2026-05-04 10:59 | -36.62578 | 146.32464 | 32377 ft | 474 kts | 45° |
| 2026-05-04 10:59 | -36.60659 | 146.35729 | 32706 ft | 474 kts | 44° |
| 2026-05-04 10:59 | -36.58709 | 146.39040 | 32983 ft | 476 kts | 44° |
| 2026-05-04 10:59 | -36.56750 | 146.42361 | 33286 ft | 476 kts | 44° |
| 2026-05-04 11:00 | -36.54788 | 146.45684 | 33624 ft | 476 kts | 44° |
| 2026-05-04 11:01 | -36.40953 | 146.69033 | 35398 ft | 481 kts | 45° |
| 2026-05-04 11:02 | -36.38963 | 146.72379 | 35642 ft | 482 kts | 45° |
| 2026-05-04 11:02 | -36.36971 | 146.75725 | 35875 ft | 483 kts | 45° |
| 2026-05-04 11:05 | -36.09618 | 147.21351 | 37079 ft | 478 kts | 45° |
| 2026-05-04 11:06 | -36.05642 | 147.27935 | 37068 ft | 478 kts | 45° |
| 2026-05-04 11:06 | -36.01665 | 147.34513 | 37071 ft | 477 kts | 45° |
| 2026-05-04 11:10 | -35.73794 | 147.80228 | 37092 ft | 479 kts | 45° |
| 2026-05-04 11:12 | -35.57630 | 148.06472 | 37098 ft | 483 kts | 44° |
| 2026-05-04 11:12 | -35.53568 | 148.13036 | 37109 ft | 483 kts | 44° |
| 2026-05-04 11:13 | -35.49504 | 148.19592 | 37102 ft | 482 kts | 44° |
| 2026-05-04 11:13 | -35.45448 | 148.26128 | 37102 ft | 480 kts | 44° |
| 2026-05-04 11:14 | -35.41394 | 148.32633 | 37124 ft | 480 kts | 44° |
| 2026-05-04 11:16 | -35.25185 | 148.58504 | 37109 ft | 478 kts | 44° |
| 2026-05-04 11:16 | -35.21123 | 148.64957 | 37084 ft | 478 kts | 44° |
| 2026-05-04 11:17 | -35.17068 | 148.71388 | 37106 ft | 478 kts | 44° |
| 2026-05-04 11:19 | -35.02801 | 148.93929 | 35005 ft | 480 kts | 43° |
| 2026-05-04 11:19 | -35.00767 | 148.97136 | 34561 ft | 475 kts | 43° |
| 2026-05-04 11:19 | -34.98749 | 149.00312 | 34092 ft | 472 kts | 42° |
| 2026-05-04 11:19 | -34.96748 | 149.03460 | 33603 ft | 468 kts | 42° |
| 2026-05-04 11:20 | -34.94762 | 149.06580 | 33113 ft | 463 kts | 43° |
| 2026-05-04 11:20 | -34.92801 | 149.09659 | 32686 ft | 457 kts | 43° |
| 2026-05-04 11:20 | -34.90860 | 149.12702 | 32223 ft | 452 kts | 43° |
| 2026-05-04 11:20 | -34.88940 | 149.15707 | 31819 ft | 447 kts | 43° |
| 2026-05-04 11:22 | -34.76004 | 149.35889 | 28740 ft | 417 kts | 42° |
| 2026-05-04 11:22 | -34.74240 | 149.38662 | 28342 ft | 414 kts | 44° |
| 2026-05-04 11:23 | -34.72720 | 149.41649 | 28030 ft | 416 kts | 52° |
| 2026-05-04 11:23 | -34.71380 | 149.44741 | 27774 ft | 410 kts | 53° |
| 2026-05-04 11:24 | -34.63703 | 149.62604 | 25566 ft | 389 kts | 52° |
| 2026-05-04 11:25 | -34.62439 | 149.65488 | 25193 ft | 386 kts | 52° |
| 2026-05-04 11:25 | -34.61179 | 149.68361 | 24792 ft | 384 kts | 52° |
| 2026-05-04 11:25 | -34.59925 | 149.71216 | 24397 ft | 382 kts | 52° |
| 2026-05-04 11:26 | -34.57433 | 149.76882 | 23577 ft | 380 kts | 52° |
| 2026-05-04 11:27 | -34.48936 | 149.96168 | 20964 ft | 357 kts | 53° |
| 2026-05-04 11:28 | -34.47769 | 149.98808 | 20609 ft | 354 kts | 53° |
| 2026-05-04 11:28 | -34.46609 | 150.01428 | 20232 ft | 352 kts | 53° |
| 2026-05-04 11:28 | -34.45453 | 150.04031 | 19884 ft | 349 kts | 53° |
| 2026-05-04 11:28 | -34.44309 | 150.06614 | 19509 ft | 347 kts | 53° |
| 2026-05-04 11:29 | -34.43167 | 150.09189 | 19140 ft | 346 kts | 53° |
| 2026-05-04 11:29 | -34.42031 | 150.11744 | 18787 ft | 344 kts | 53° |
| 2026-05-04 11:29 | -34.40897 | 150.14296 | 18386 ft | 344 kts | 53° |
| 2026-05-04 11:29 | -34.39765 | 150.16844 | 17958 ft | 343 kts | 53° |
| 2026-05-04 11:31 | -34.32015 | 150.34245 | 15371 ft | 329 kts | 54° |
| 2026-05-04 11:33 | -34.24509 | 150.51023 | 12884 ft | 318 kts | 55° |
| 2026-05-04 11:33 | -34.23460 | 150.53366 | 12531 ft | 316 kts | 55° |
| 2026-05-04 11:33 | -34.22413 | 150.55692 | 12178 ft | 314 kts | 55° |
| 2026-05-04 11:34 | -34.21377 | 150.58005 | 11835 ft | 312 kts | 55° |
| 2026-05-04 11:34 | -34.20348 | 150.60301 | 11487 ft | 310 kts | 55° |
| 2026-05-04 11:34 | -34.19320 | 150.62588 | 11132 ft | 309 kts | 56° |
| 2026-05-04 11:34 | -34.18300 | 150.64855 | 10796 ft | 307 kts | 56° |
| 2026-05-04 11:35 | -34.17282 | 150.67118 | 10444 ft | 306 kts | 56° |
| 2026-05-04 11:35 | -34.16284 | 150.69344 | 10299 ft | 296 kts | 56° |
| 2026-05-04 11:35 | -34.15315 | 150.71500 | 10152 ft | 289 kts | 55° |
| 2026-05-04 11:35 | -34.14368 | 150.73604 | 10028 ft | 281 kts | 55° |
| 2026-05-04 11:36 | -34.13434 | 150.75675 | 9702 ft | 280 kts | 56° |
| 2026-05-04 11:36 | -34.12506 | 150.77731 | 9430 ft | 278 kts | 55° |
| 2026-05-04 11:36 | -34.11583 | 150.79774 | 9144 ft | 277 kts | 56° |
| 2026-05-04 11:36 | -34.10663 | 150.81810 | 8855 ft | 275 kts | 56° |
| 2026-05-04 11:37 | -34.09751 | 150.83833 | 8574 ft | 274 kts | 56° |
| 2026-05-04 11:37 | -34.08841 | 150.85853 | 8289 ft | 273 kts | 56° |
| 2026-05-04 11:37 | -34.07936 | 150.87865 | 8002 ft | 273 kts | 56° |
| 2026-05-04 11:37 | -34.07032 | 150.89875 | 7720 ft | 273 kts | 56° |
| 2026-05-04 11:38 | -34.06126 | 150.91885 | 7423 ft | 273 kts | 56° |
| 2026-05-04 11:38 | -34.05219 | 150.93897 | 7127 ft | 272 kts | 56° |
| 2026-05-04 11:38 | -34.04314 | 150.95902 | 6843 ft | 273 kts | 56° |
| 2026-05-04 11:38 | -34.03435 | 150.97898 | 6556 ft | 275 kts | 62° |
| 2026-05-04 11:39 | -34.03110 | 151.00190 | 6233 ft | 285 kts | 94° |
| 2026-05-04 11:39 | -34.03816 | 151.02418 | 6053 ft | 289 kts | 126° |
| 2026-05-04 11:40 | -34.13489 | 151.09167 | 4436 ft | 254 kts | 172° |
| 2026-05-04 11:41 | -34.15157 | 151.09768 | 4304 ft | 251 kts | 153° |
| 2026-05-04 11:41 | -34.16411 | 151.11202 | 4206 ft | 250 kts | 119° |
| 2026-05-04 11:41 | -34.16884 | 151.13184 | 4173 ft | 248 kts | 88° |
| 2026-05-04 11:41 | -34.16832 | 151.15280 | 4082 ft | 255 kts | 84° |
| 2026-05-04 11:42 | -34.16714 | 151.17442 | 3841 ft | 258 kts | 83° |
| 2026-05-04 11:42 | -34.16462 | 151.19568 | 3576 ft | 253 kts | 66° |
| 2026-05-04 11:42 | -34.15511 | 151.21269 | 3325 ft | 242 kts | 34° |
| 2026-05-04 11:42 | -34.14065 | 151.22161 | 3158 ft | 226 kts | 14° |
| 2026-05-04 11:43 | -34.12605 | 151.22391 | 3127 ft | 202 kts | 348° |
| 2026-05-04 11:43 | -34.11251 | 151.22063 | 3024 ft | 198 kts | 344° |
| 2026-05-04 11:43 | -34.09950 | 151.21687 | 2768 ft | 186 kts | 342° |
| 2026-05-04 11:43 | -34.08751 | 151.21310 | 2626 ft | 171 kts | 343° |
| 2026-05-04 11:44 | -34.07631 | 151.20998 | 2413 ft | 159 kts | 344° |
| 2026-05-04 11:44 | -34.06617 | 151.20766 | 2435 ft | 145 kts | 357° |
| 2026-05-04 11:44 | -34.05674 | 151.21376 | 2687 ft | 178 kts | 44° |
| 2026-05-04 11:44 | -34.05108 | 151.22947 | 2973 ft | 229 kts | 71° |
| 2026-05-04 11:45 | -34.04728 | 151.24897 | 2969 ft | 241 kts | 72° |
| 2026-05-04 11:45 | -34.04404 | 151.26886 | 2974 ft | 245 kts | 83° |
| 2026-05-04 11:45 | -34.04736 | 151.28882 | 3000 ft | 251 kts | 116° |
| 2026-05-04 11:45 | -34.05876 | 151.30454 | 2999 ft | 252 kts | 148° |
| 2026-05-04 11:46 | -34.07482 | 151.31337 | 3007 ft | 251 kts | 161° |
| 2026-05-04 11:46 | -34.09128 | 151.32052 | 3008 ft | 251 kts | 162° |
| 2026-05-04 11:46 | -34.10764 | 151.32751 | 2773 ft | 254 kts | 163° |
| 2026-05-04 11:46 | -34.12432 | 151.33456 | 2527 ft | 252 kts | 162° |
| 2026-05-04 11:47 | -34.14102 | 151.34118 | 2278 ft | 252 kts | 163° |
| 2026-05-04 11:47 | -34.15766 | 151.34774 | 2163 ft | 252 kts | 163° |
| 2026-05-04 11:47 | -34.17439 | 151.35442 | 2051 ft | 254 kts | 163° |
| 2026-05-04 11:47 | -34.19119 | 151.36125 | 2013 ft | 256 kts | 162° |
| 2026-05-04 11:48 | -34.20825 | 151.36704 | 1992 ft | 253 kts | 176° |
| 2026-05-04 11:48 | -34.22514 | 151.36419 | 1976 ft | 245 kts | 210° |
| 2026-05-04 11:48 | -34.23795 | 151.35167 | 1984 ft | 234 kts | 243° |
| 2026-05-04 11:48 | -34.24301 | 151.33377 | 2008 ft | 223 kts | 274° |
| 2026-05-04 11:49 | -34.23924 | 151.31635 | 1992 ft | 213 kts | 305° |
| 2026-05-04 11:49 | -34.23026 | 151.30246 | 1996 ft | 208 kts | 312° |
| 2026-05-04 11:49 | -34.22078 | 151.28939 | 1994 ft | 206 kts | 313° |
| 2026-05-04 11:49 | -34.21026 | 151.27765 | 1998 ft | 205 kts | 322° |
| 2026-05-04 11:50 | -34.19907 | 151.26686 | 1993 ft | 206 kts | 323° |
| 2026-05-04 11:50 | -34.18774 | 151.25618 | 2000 ft | 208 kts | 322° |
| 2026-05-04 11:50 | -34.17623 | 151.24560 | 2001 ft | 208 kts | 323° |
| 2026-05-04 11:50 | -34.16454 | 151.23513 | 1990 ft | 209 kts | 330° |
| 2026-05-04 11:51 | -34.15094 | 151.22980 | 2000 ft | 203 kts | 348° |
| 2026-05-04 11:51 | -34.13743 | 151.22679 | 2002 ft | 190 kts | 348° |
| 2026-05-04 11:51 | -34.12909 | 151.22473 | 2015 ft | 189 kts | 346° |
| 2026-05-04 11:51 | -34.11606 | 151.22119 | 1992 ft | 189 kts | 343° |
| 2026-05-04 11:52 | -34.09969 | 151.21593 | 1986 ft | 176 kts | 345° |
| 2026-05-04 11:52 | -34.08804 | 151.21307 | 1971 ft | 169 kts | 347° |
| 2026-05-04 11:52 | -34.07652 | 151.21012 | 1984 ft | 168 kts | 346° |
| 2026-05-04 11:52 | -34.06904 | 151.20823 | 2036 ft | 156 kts | 345° |
| 2026-05-04 11:53 | -34.05881 | 151.20554 | 2004 ft | 146 kts | 345° |
| 2026-05-04 11:53 | -34.04954 | 151.20300 | 1860 ft | 124 kts | 345° |
| 2026-05-04 11:53 | -34.04162 | 151.20102 | 1679 ft | 116 kts | 346° |
| 2026-05-04 11:53 | -34.03372 | 151.19891 | 1517 ft | 119 kts | 347° |
| 2026-05-04 11:55 | -33.97586 | 151.18365 | 288 ft | 124 kts | 348° |
| 2026-05-04 11:55 | -33.96749 | 151.18146 | 140 ft | 123 kts | 349° |
| 2026-05-04 11:56 | -33.95920 | 151.17935 | 23 ft | 114 kts | 348° |
| 2026-05-04 11:56 | -33.95268 | 151.17767 | 24 ft | 74 kts | 348° |
| 2026-05-04 11:56 | -33.94870 | 151.17661 | 22 ft | 50 kts | 348° |
| 2026-05-04 11:56 | -33.94664 | 151.17646 | 22 ft | 28 kts | 6° |
| 2026-05-04 11:57 | -33.94542 | 151.17676 | 23 ft | 2 kts | 18° |
| 2026-05-04 11:57 | -33.94527 | 151.17682 | 25 ft | 2 kts | 17° |
| 2026-05-04 11:57 | -33.94513 | 151.17687 | 25 ft | 2 kts | 17° |
| 2026-05-04 11:57 | -33.94500 | 151.17692 | 25 ft | 2 kts | 17° |
| 2026-05-04 11:58 | -33.94483 | 151.17698 | 24 ft | 4 kts | 17° |
| 2026-05-04 11:58 | -33.94440 | 151.17714 | 25 ft | 9 kts | 17° |
| 2026-05-04 11:58 | -33.94365 | 151.17741 | 22 ft | 13 kts | 9° |
| 2026-05-04 11:58 | -33.94273 | 151.17717 | 20 ft | 14 kts | 345° |
| 2026-05-04 11:59 | -33.94184 | 151.17690 | 20 ft | 13 kts | 346° |
| 2026-05-04 11:59 | -33.94095 | 151.17663 | 21 ft | 14 kts | 346° |
| 2026-05-04 11:59 | -33.93992 | 151.17635 | 19 ft | 16 kts | 348° |
| 2026-05-04 11:59 | -33.93886 | 151.17607 | 18 ft | 11 kts | 347° |
| 2026-05-04 12:00 | -33.93812 | 151.17588 | 17 ft | 11 kts | 347° |
| 2026-05-04 12:00 | -33.93738 | 151.17569 | 17 ft | 11 kts | 348° |
| 2026-05-04 12:00 | -33.93664 | 151.17592 | 23 ft | 11 kts | 48° |
| 2026-05-04 12:00 | -33.93656 | 151.17682 | 29 ft | 11 kts | 99° |
| 2026-05-04 12:01 | -33.93666 | 151.17752 | 29 ft | 7 kts | 98° |
| 2026-05-04 12:01 | -33.93651 | 151.17801 | 29 ft | 5 kts | 43° |
| 2026-05-04 12:02 | -33.93625 | 151.17885 | 30 ft | 3 kts | 99° |
| 2026-05-04 12:03 | -33.93626 | 151.17893 | 30 ft | 0 kts | 99° |
| 2026-05-04 12:03 | -33.93626 | 151.17894 | 30 ft | 0 kts | 99° |